KMGY/MGY METAR and TAF weather

Enter ICAO airport designator
Station Type Date Time Source
KMGY METAR 2021/01/17 19:53 UTC NOAA

KMGY 171953Z AUTO 22006KT 1 1/2SM -SN BR BKN006 OVC012 01/M01 A2969 RMK AO2 CIG 004V009 SLP060 P0000 T00111006


Station Type Date Time Source
KMGY Decoded METAR 2021/01/17 19:53 UTC NOAA

DAYTON WRIGHT BROTHERS AIRPORT , OH, United States (KMGY) 39-36N 84-14W 289M
Jan 17, 2021 - 02:53 PM EST / 2021.01.17 1953 UTC
Wind: from the SW (220 degrees) at 7 MPH (6 KT):0
Visibility: 1 1/2 mile(s):0
Sky conditions: overcast
Weather: light snow; mist
Precipitation last hour: A trace
Temperature: 34.0 F (1.1 C)
Windchill: 28 F (-2 C):1
Dew Point: 30.9 F (-0.6 C)
Relative Humidity: 88%
Pressure (altimeter): 29.69 in. Hg (1005 hPa)
ob: KMGY 171953Z AUTO 22006KT 1 1/2SM -SN BR BKN006 OVC012 01/M01 A2969 RMK AO2 CIG 004V009 SLP060 P0000 T00111006
cycle: 20

Station Type Date Time Source
KMGY TAF UTC NOAA

Error!

Example: see airport list